Time;durP1;ratioP1;P1;durP2;ratioP2;P2;SDS_P1;SDS_P2;PMS_P1;PMS_P2;Temp;Humidity;BMP_temperature;BMP_pressure;BME280_temperature;BME280_humidity;BME280_pressure;Samples;Min_cycle;Max_cycle;Signal;HPM_P1;HPM_P2
2021/08/27 00:00:06;;;;;;;26.33;14.07;;;;;;;19.39;84.90;100925.31;1866317;77;21555;-60
2021/08/27 00:02:35;;;;;;;25.43;14.30;;;;;;;19.34;85.11;100926.97;1866373;77;21607;-60
2021/08/27 00:05:05;;;;;;;24.85;13.28;;;;;;;19.28;85.37;100929.60;1866478;77;21070;-59
2021/08/27 00:07:34;;;;;;;29.72;15.68;;;;;;;19.24;85.37;100922.79;1866248;77;21042;-59
2021/08/27 00:10:03;;;;;;;25.72;13.48;;;;;;;19.23;85.55;100925.08;1866455;77;21144;-60
2021/08/27 00:12:32;;;;;;;21.12;12.53;;;;;;;19.23;85.46;100925.08;1862839;77;21607;-60
2021/08/27 00:15:01;;;;;;;22.15;13.13;;;;;;;19.21;85.40;100917.66;1851774;77;21070;-59
2021/08/27 00:17:29;;;;;;;25.52;14.68;;;;;;;19.18;85.56;100911.23;1851765;77;21031;-59
2021/08/27 00:19:59;;;;;;;27.13;15.78;;;;;;;19.15;85.65;100918.12;1851526;77;21027;-59
2021/08/27 00:22:29;;;;;;;22.70;13.05;;;;;;;19.17;85.90;100918.02;1851811;77;21047;-59
2021/08/27 00:24:58;;;;;;;28.05;15.03;;;;;;;19.17;85.74;100910.84;1851685;77;21454;-60
2021/08/27 00:27:27;;;;;;;26.15;13.35;;;;;;;19.17;85.62;100910.84;1851819;77;21063;-60
2021/08/27 00:29:55;;;;;;;25.75;14.30;;;;;;;19.18;85.76;100911.69;1851643;77;21066;-59
2021/08/27 00:32:24;;;;;;;26.95;14.95;;;;;;;19.18;85.63;100917.03;1851661;77;21050;-59
2021/08/27 00:34:53;;;;;;;24.57;15.10;;;;;;;19.17;85.87;100922.02;1851638;77;21091;-59
2021/08/27 00:37:22;;;;;;;29.42;16.62;;;;;;;19.16;85.94;100919.81;1851831;77;21567;-59
2021/08/27 00:39:51;;;;;;;24.50;15.23;;;;;;;19.17;86.14;100918.02;1851692;77;21148;-59
2021/08/27 00:42:20;;;;;;;25.35;14.15;;;;;;;19.18;86.29;100909.02;1851715;77;21132;-59
2021/08/27 00:44:49;;;;;;;24.65;15.23;;;;;;;19.15;86.35;100912.78;1851672;77;21125;-59
2021/08/27 00:47:17;;;;;;;25.90;14.63;;;;;;;19.15;86.40;100922.13;1851602;77;21059;-59
2021/08/27 00:49:47;;;;;;;25.75;14.35;;;;;;;19.13;86.39;100913.38;1851769;77;21137;-59
2021/08/27 00:52:16;;;;;;;24.20;14.18;;;;;;;19.12;86.61;100915.66;1851658;77;21536;-59
2021/08/27 00:54:53;;;;;;;29.52;15.03;;;;;;;19.10;86.62;100922.44;1851643;77;21485;-59
2021/08/27 00:57:22;;;;;;;30.20;14.47;;;;;;;19.09;86.79;100927.91;1851675;77;21050;-59
2021/08/27 00:59:51;;;;;;;25.35;15.90;;;;;;;19.07;86.98;100924.47;1851824;77;21537;-59
2021/08/27 01:02:21;;;;;;;26.15;14.03;;;;;;;19.05;87.06;100919.73;1851704;77;21071;-59
2021/08/27 01:04:51;;;;;;;27.52;13.85;;;;;;;19.05;86.93;100914.39;1851742;77;21117;-59
2021/08/27 01:07:38;;;;;;;22.07;12.20;;;;;;;19.03;86.92;100910.53;1851777;77;21062;-59
2021/08/27 01:10:18;;;;;;;23.80;13.83;;;;;;;19.01;86.74;100908.42;1851773;77;21150;-59
2021/08/27 01:13:06;;;;;;;23.55;14.80;;;;;;;19.00;86.80;100912.56;1851896;77;21083;-59
2021/08/27 01:15:38;;;;;;;27.30;14.70;;;;;;;18.99;86.86;100921.52;1861363;77;21050;-59
2021/08/27 01:18:18;;;;;;;26.48;14.20;;;;;;;18.98;86.90;100930.47;1900037;75;21023;-59
2021/08/27 01:21:13;;;;;;;30.27;15.98;;;;;;;18.98;86.85;100931.80;1900045;75;21203;-59
2021/08/27 01:23:47;;;;;;;27.70;14.13;;;;;;;18.98;87.08;100931.80;1861446;77;21564;-59
2021/08/27 01:26:19;;;;;;;28.02;14.07;;;;;;;18.97;87.15;100927.45;1900170;75;21062;-59
2021/08/27 01:28:51;;;;;;;22.22;12.15;;;;;;;18.96;86.91;100921.27;1861338;77;21116;-60
2021/08/27 01:31:22;;;;;;;24.82;13.25;;;;;;;18.95;86.79;100922.70;1861194;77;21125;-59
2021/08/27 01:34:06;;;;;;;26.05;14.03;;;;;;;18.94;86.83;100923.20;1854291;77;21145;-59
2021/08/27 01:36:38;;;;;;;30.08;13.68;;;;;;;18.93;86.74;100928.14;1899569;75;21035;-59
2021/08/27 01:39:09;;;;;;;26.02;13.98;;;;;;;18.93;86.71;100925.97;1861304;77;21074;-59
2021/08/27 01:41:40;;;;;;;30.15;13.78;;;;;;;18.94;86.55;100930.33;1861209;77;21106;-59
2021/08/27 01:44:12;;;;;;;32.58;14.55;;;;;;;18.93;86.63;100925.97;1861422;77;21457;-59
2021/08/27 01:46:43;;;;;;;31.95;14.58;;;;;;;18.93;86.51;100927.30;1861290;77;21059;-59
2021/08/27 01:49:14;;;;;;;29.32;13.65;;;;;;;18.93;86.38;100931.30;1861205;77;21047;-59
2021/08/27 01:51:45;;;;;;;24.65;13.10;;;;;;;18.92;86.28;100937.09;1861061;77;21058;-60
2021/08/27 01:54:16;;;;;;;29.92;13.68;;;;;;;18.90;86.19;100935.02;1861286;77;21062;-59
2021/08/27 01:56:45;;;;;;;26.07;12.90;;;;;;;18.89;86.20;100934.67;1861188;77;21113;-59
2021/08/27 01:59:14;;;;;;;26.90;14.10;;;;;;;18.88;86.17;100937.80;1861238;77;21097;-59
2021/08/27 02:01:43;;;;;;;36.33;15.30;;;;;;;18.84;86.36;100941.65;1861218;77;21568;-59
2021/08/27 02:04:15;;;;;;;29.98;15.48;;;;;;;18.82;86.38;100940.06;1861073;77;21078;-60
2021/08/27 02:06:44;;;;;;;31.77;14.90;;;;;;;18.82;86.38;100944.91;1861176;77;21082;-59
2021/08/27 02:09:15;;;;;;;25.02;13.50;;;;;;;18.79;86.49;100946.41;1861207;77;21482;-59
2021/08/27 02:11:45;;;;;;;25.30;13.88;;;;;;;18.77;86.50;100952.34;1861168;77;21580;-60
2021/08/27 02:14:16;;;;;;;25.40;13.88;;;;;;;18.76;86.44;100948.44;1857878;77;21545;-60
2021/08/27 02:16:45;;;;;;;25.72;15.20;;;;;;;18.73;86.45;100941.52;1851505;77;21039;-60
2021/08/27 02:19:14;;;;;;;29.45;14.98;;;;;;;18.72;86.49;100942.50;1851628;77;21050;-59
2021/08/27 02:21:46;;;;;;;29.50;17.42;;;;;;;18.72;86.94;100947.84;1851489;77;21551;-60
2021/08/27 02:24:26;;;;;;;30.92;15.28;;;;;;;18.71;87.29;100944.78;1851510;77;21046;-60
2021/08/27 02:26:56;;;;;;;30.20;17.42;;;;;;;18.71;87.40;100952.78;1851466;77;21137;-59
2021/08/27 02:29:26;;;;;;;24.95;15.53;;;;;;;18.72;87.49;100955.84;1851428;77;21567;-59
2021/08/27 02:32:01;;;;;;;25.35;13.65;;;;;;;18.74;87.47;100958.38;1851494;77;21015;-59
2021/08/27 02:34:32;;;;;;;21.93;13.62;;;;;;;18.71;87.60;100962.97;1851530;77;21109;-60
2021/08/27 02:37:03;;;;;;;26.48;13.25;;;;;;;18.71;87.57;100959.45;1851501;77;21140;-60
2021/08/27 02:39:32;;;;;;;26.40;14.35;;;;;;;18.70;87.45;100953.73;1851496;77;21485;-60
2021/08/27 02:42:01;;;;;;;27.37;14.47;;;;;;;18.69;87.33;100954.22;1851426;77;21118;-60
2021/08/27 02:44:30;;;;;;;29.05;13.93;;;;;;;18.67;87.37;100950.81;1851541;77;21546;-60
2021/08/27 02:46:58;;;;;;;29.02;14.98;;;;;;;18.66;87.59;100957.58;1851503;77;21063;-59
2021/08/27 02:49:27;;;;;;;27.52;14.98;;;;;;;18.65;87.63;100954.55;1851514;77;21026;-59
2021/08/27 02:51:59;;;;;;;29.23;14.55;;;;;;;18.66;87.81;100952.25;1851632;77;21082;-59
2021/08/27 02:54:31;;;;;;;25.82;13.78;;;;;;;18.66;87.88;100962.42;1851235;77;21082;-60
2021/08/27 02:57:03;;;;;;;22.73;12.55;;;;;;;18.66;87.76;100965.09;1851600;77;21079;-59
2021/08/27 02:59:32;;;;;;;27.52;13.98;;;;;;;18.66;87.66;100971.76;1851419;77;21055;-60
2021/08/27 03:02:03;;;;;;;24.05;13.88;;;;;;;18.66;87.59;100962.42;1851636;77;21051;-59
2021/08/27 03:04:58;;;;;;;27.98;14.10;;;;;;;18.68;87.47;100958.32;1851657;77;21039;-59
2021/08/27 03:07:30;;;;;;;29.10;14.87;;;;;;;18.71;87.36;100963.45;1851071;77;21071;-59
2021/08/27 03:10:08;;;;;;;25.68;15.05;;;;;;;18.74;87.27;100964.58;1851617;77;21063;-59
2021/08/27 03:12:56;;;;;;;26.55;15.00;;;;;;;18.80;87.24;100968.14;1851558;77;21481;-59
2021/08/27 03:15:28;;;;;;;26.85;15.40;;;;;;;18.84;87.39;100973.66;1859513;77;21097;-59
2021/08/27 03:18:03;;;;;;;36.13;15.75;;;;;;;18.92;87.47;100970.94;1864897;77;21062;-59
2021/08/27 03:20:44;;;;;;;29.57;14.47;;;;;;;19.01;87.55;100970.29;1866402;77;21560;-59
2021/08/27 03:23:15;;;;;;;22.85;13.68;;;;;;;19.09;87.55;100969.28;1863057;77;21509;-59
2021/08/27 03:25:48;;;;;;;21.30;11.68;;;;;;;19.19;87.53;100972.98;1866187;77;21125;-59
2021/08/27 03:28:22;;;;;;;20.73;12.57;;;;;;;19.31;87.44;100974.39;1866538;77;21065;-59
2021/08/27 03:30:53;;;;;;;24.72;13.38;;;;;;;19.39;87.29;100970.70;1866357;77;21046;-59
2021/08/27 03:33:24;;;;;;;24.80;12.55;;;;;;;19.47;86.98;100977.66;1866349;77;21022;-58
2021/08/27 03:35:55;;;;;;;22.52;13.88;;;;;;;19.59;86.87;100977.27;1866442;77;21049;-60
2021/08/27 03:38:26;;;;;;;25.30;12.73;;;;;;;19.65;86.71;100968.80;1866241;77;21537;-59
2021/08/27 03:40:57;;;;;;;23.65;13.38;;;;;;;19.66;86.43;100969.14;1866270;77;21074;-59
2021/08/27 03:43:27;;;;;;;28.15;13.85;;;;;;;19.71;86.24;100975.50;1866348;77;21046;-59
2021/08/27 03:45:58;;;;;;;23.75;13.08;;;;;;;19.74;86.05;100973.48;1866327;77;21148;-58
2021/08/27 03:48:28;;;;;;;27.07;12.30;;;;;;;19.86;85.88;100977.05;1866398;77;21197;-60
2021/08/27 03:50:58;;;;;;;27.75;13.03;;;;;;;19.96;85.70;100973.23;1866277;77;21026;-60
2021/08/27 03:53:27;;;;;;;25.68;13.53;;;;;;;20.02;85.56;100972.27;1866328;77;21058;-59
2021/08/27 03:55:57;;;;;;;20.90;12.78;;;;;;;20.20;85.37;100978.55;1866277;77;21078;-59
2021/08/27 03:58:26;;;;;;;21.77;12.35;;;;;;;20.38;85.14;100979.82;1866392;77;21500;-59
2021/08/27 04:00:57;;;;;;;20.85;12.55;;;;;;;20.50;84.93;100985.20;1866425;77;21606;-60
2021/08/27 04:03:26;;;;;;;24.50;14.33;;;;;;;20.53;84.67;100992.50;1866334;77;21124;-60
2021/08/27 04:06:08;;;;;;;43.68;31.73;;;;;;;20.55;84.54;100998.58;1866292;77;21167;-60
2021/08/27 04:08:43;;;;;;;28.67;17.37;;;;;;;20.59;84.46;100994.69;1866397;77;21130;-59
2021/08/27 04:11:14;;;;;;;20.60;11.45;;;;;;;20.61;84.29;100992.77;1866332;77;21050;-59
2021/08/27 04:13:44;;;;;;;21.80;13.15;;;;;;;20.66;84.15;100995.11;1866189;77;21024;-60
2021/08/27 04:16:13;;;;;;;19.60;11.78;;;;;;;20.71;84.01;100996.95;1857924;77;21622;-60
2021/08/27 04:18:42;;;;;;;23.90;12.10;;;;;;;20.78;83.91;101005.33;1851596;77;21238;-59
2021/08/27 04:21:11;;;;;;;28.80;13.60;;;;;;;20.89;83.83;101005.84;1851607;77;21030;-59
2021/08/27 04:23:39;;;;;;;21.93;12.82;;;;;;;21.08;83.54;101006.10;1851636;77;21031;-60
2021/08/27 04:26:08;;;;;;;21.35;12.70;;;;;;;21.28;83.23;101006.33;1851509;77;21071;-59
2021/08/27 04:28:37;;;;;;;22.73;11.55;;;;;;;21.41;82.45;101007.03;1851710;77;21117;-60
2021/08/27 04:31:06;;;;;;;21.15;12.35;;;;;;;21.44;82.10;101004.12;1851555;77;21082;-60
2021/08/27 04:33:35;;;;;;;18.67;10.65;;;;;;;21.53;81.76;100996.70;1851590;77;21105;-59
2021/08/27 04:36:04;;;;;;;19.75;11.80;;;;;;;21.69;81.57;100996.78;1851585;77;21086;-59
2021/08/27 04:38:33;;;;;;;15.90;11.22;;;;;;;21.85;81.07;100999.91;1851500;77;21030;-60
2021/08/27 04:41:01;;;;;;;20.10;11.65;;;;;;;21.98;80.76;101000.62;1851580;77;21152;-59
2021/08/27 04:43:30;;;;;;;18.45;11.10;;;;;;;22.15;80.67;100999.67;1851575;77;21059;-60
2021/08/27 04:45:59;;;;;;;16.97;10.08;;;;;;;22.31;80.26;100998.77;1851600;77;21145;-59
2021/08/27 04:48:28;;;;;;;20.45;11.12;;;;;;;22.42;79.78;101002.39;1851566;77;21132;-59
2021/08/27 04:50:57;;;;;;;17.32;9.95;;;;;;;22.64;79.57;101000.91;1851563;77;21168;-60
2021/08/27 04:53:25;;;;;;;17.20;9.38;;;;;;;22.82;79.15;101005.19;1851512;77;21145;-60
2021/08/27 04:55:54;;;;;;;16.05;8.55;;;;;;;22.98;78.57;100999.81;1851571;77;21055;-60
2021/08/27 04:58:25;;;;;;;20.90;9.68;;;;;;;23.12;78.34;100997.64;1851586;77;21137;-59
2021/08/27 05:00:54;;;;;;;15.95;9.33;;;;;;;23.25;78.00;101003.28;1851577;77;21054;-60
2021/08/27 05:03:22;;;;;;;16.80;8.68;;;;;;;23.38;77.61;101003.88;1851576;77;21473;-60
2021/08/27 05:05:51;;;;;;;16.90;8.78;;;;;;;23.51;77.23;101005.83;1851486;77;21113;-60
2021/08/27 05:08:20;;;;;;;18.48;8.95;;;;;;;23.66;76.84;100993.34;1851573;77;21063;-60
2021/08/27 05:10:48;;;;;;;18.27;9.23;;;;;;;23.97;76.49;100999.49;1851662;77;21140;-60
2021/08/27 05:13:17;;;;;;;15.13;9.73;;;;;;;24.09;76.29;100992.16;1851541;77;21102;-60
2021/08/27 05:15:46;;;;;;;18.42;9.50;;;;;;;24.32;75.94;100990.50;1851411;77;21051;-60
2021/08/27 05:18:15;;;;;;;17.48;9.53;;;;;;;24.81;75.52;100995.33;1851468;77;21180;-59
2021/08/27 05:20:43;;;;;;;14.60;8.63;;;;;;;25.32;74.70;100993.15;1851558;77;21046;-59
2021/08/27 05:23:12;;;;;;;17.52;8.70;;;;;;;25.50;73.47;100996.73;1851541;77;21191;-60
2021/08/27 05:25:41;;;;;;;13.08;8.20;;;;;;;25.53;72.52;101000.48;1851589;77;21063;-60
2021/08/27 05:28:10;;;;;;;12.23;7.28;;;;;;;25.52;72.38;101003.33;1851553;77;21079;-59
2021/08/27 05:30:39;;;;;;;9.85;7.05;;;;;;;25.79;72.31;101000.59;1851475;77;21110;-60
2021/08/27 05:33:07;;;;;;;10.68;6.92;;;;;;;26.14;72.14;101000.28;1851543;77;21561;-59
2021/08/27 05:35:36;;;;;;;14.30;7.25;;;;;;;26.73;71.40;100991.13;1851559;77;21133;-60
2021/08/27 05:38:05;;;;;;;12.23;7.22;;;;;;;27.30;70.49;100993.30;1851655;77;21070;-59
2021/08/27 05:40:34;;;;;;;12.23;6.17;;;;;;;27.70;69.46;100993.09;1851543;77;21055;-60
2021/08/27 05:43:03;;;;;;;10.43;6.22;;;;;;;28.10;68.43;100992.81;1851493;77;21078;-60
2021/08/27 05:45:31;;;;;;;11.48;6.22;;;;;;;28.41;66.97;100993.48;1851619;77;21093;-60
2021/08/27 05:48:00;;;;;;;8.75;6.25;;;;;;;28.81;65.20;100993.13;1851539;77;21082;-59
2021/08/27 05:50:29;;;;;;;9.45;5.92;;;;;;;29.11;64.15;100990.64;1851543;77;21513;-60
2021/08/27 05:52:58;;;;;;;7.87;5.58;;;;;;;29.46;62.94;100995.27;1851516;77;21470;-60
2021/08/27 05:55:27;;;;;;;6.87;5.12;;;;;;;29.62;62.07;100992.95;1851620;77;21079;-59
2021/08/27 05:57:56;;;;;;;8.93;5.92;;;;;;;29.70;61.43;100988.02;1851427;77;21102;-60
2021/08/27 06:00:25;;;;;;;6.67;5.53;;;;;;;29.97;60.95;100985.28;1851640;77;21055;-59
2021/08/27 06:02:54;;;;;;;9.95;5.90;;;;;;;30.30;60.04;100985.85;1851501;77;21071;-60
2021/08/27 06:05:23;;;;;;;11.68;5.83;;;;;;;30.52;58.49;100991.47;1851538;77;21075;-60
2021/08/27 06:07:52;;;;;;;7.28;5.05;;;;;;;30.77;57.73;100995.62;1851568;77;21054;-59
2021/08/27 06:10:21;;;;;;;7.85;5.58;;;;;;;31.01;56.95;100988.25;1851435;77;21547;-60
2021/08/27 06:12:50;;;;;;;7.55;5.25;;;;;;;30.94;56.39;100994.11;1851535;77;21501;-60
2021/08/27 06:15:19;;;;;;;6.92;5.08;;;;;;;30.95;55.57;100995.78;1851595;77;21109;-60
2021/08/27 06:17:48;;;;;;;9.23;5.17;;;;;;;31.18;55.43;100994.32;1859789;77;21177;-59
2021/08/27 06:20:16;;;;;;;8.38;5.35;;;;;;;31.29;54.29;100988.39;1866206;77;21038;-60
2021/08/27 06:22:45;;;;;;;8.08;5.03;;;;;;;31.51;54.35;100993.92;1866135;77;21100;-60
2021/08/27 06:25:14;;;;;;;6.92;5.08;;;;;;;31.68;53.28;100995.36;1866265;77;21086;-60
2021/08/27 06:27:43;;;;;;;7.75;5.00;;;;;;;31.84;53.26;100998.36;1866313;77;21077;-59
2021/08/27 06:30:12;;;;;;;6.95;5.58;;;;;;;32.10;52.34;100998.33;1866401;77;21178;-60
2021/08/27 06:32:41;;;;;;;7.28;5.28;;;;;;;32.41;51.97;100999.86;1866414;77;21026;-60
2021/08/27 06:35:10;;;;;;;6.55;4.65;;;;;;;32.24;50.46;101001.50;1866181;77;21050;-61
2021/08/27 06:40:25;;;;;;;7.92;5.33;;;;;;;32.63;50.29;100998.79;1866263;77;21144;-60
2021/08/27 06:42:54;;;;;;;11.53;5.55;;;;;;;32.05;50.38;101000.27;1866378;77;21058;-60
2021/08/27 06:45:23;;;;;;;8.38;5.28;;;;;;;31.24;50.90;101000.88;1866419;77;21078;-60
2021/08/27 06:47:51;;;;;;;8.28;5.80;;;;;;;31.10;51.68;101003.95;1866400;77;21058;-60
2021/08/27 06:50:20;;;;;;;8.38;5.62;;;;;;;31.03;51.77;100998.42;1866264;77;21082;-60
2021/08/27 06:52:49;;;;;;;11.90;6.42;;;;;;;30.66;52.25;100997.44;1866247;77;21078;-59
2021/08/27 06:55:17;;;;;;;10.75;5.92;;;;;;;30.55;52.56;100997.38;1866223;77;21066;-59
2021/08/27 06:57:46;;;;;;;11.22;6.87;;;;;;;30.32;53.29;101004.69;1866282;77;21117;-60
2021/08/27 07:00:16;;;;;;;9.55;6.70;;;;;;;30.10;53.77;101006.39;1866324;77;21167;-60
2021/08/27 07:02:45;;;;;;;7.40;5.75;;;;;;;30.66;54.01;101004.23;1866405;77;21120;-60
2021/08/27 07:05:15;;;;;;;9.15;6.00;;;;;;;31.38;52.71;100997.30;1866403;77;21054;-59
2021/08/27 07:07:44;;;;;;;11.43;5.83;;;;;;;32.03;51.91;100993.34;1866358;77;21054;-60
2021/08/27 07:10:13;;;;;;;8.35;5.87;;;;;;;32.56;49.15;100993.78;1866275;77;21070;-60
2021/08/27 07:12:42;;;;;;;9.68;6.15;;;;;;;32.80;48.65;100988.94;1866328;77;21595;-60
2021/08/27 07:15:11;;;;;;;12.68;6.10;;;;;;;33.29;48.61;100987.92;1866235;77;21066;-60
2021/08/27 07:17:40;;;;;;;10.85;6.08;;;;;;;33.64;47.19;100985.09;1863163;77;21559;-60
2021/08/27 07:20:10;;;;;;;8.20;5.17;;;;;;;33.94;46.58;101003.88;1851653;77;21145;-60
2021/08/27 07:22:39;;;;;;;8.93;5.70;;;;;;;34.12;46.23;101002.73;1851734;77;21121;-60
2021/08/27 07:25:09;;;;;;;12.50;7.97;;;;;;;34.27;45.14;100999.00;1851594;77;21137;-60
2021/08/27 07:27:39;;;;;;;7.28;5.83;;;;;;;34.51;44.88;100999.73;1851665;77;21184;-60
2021/08/27 07:30:09;;;;;;;9.65;5.87;;;;;;;34.73;44.32;101001.73;1851600;77;21560;-60
2021/08/27 07:32:38;;;;;;;10.10;5.30;;;;;;;35.21;44.45;101004.64;1851710;77;21149;-60
2021/08/27 07:35:08;;;;;;;7.97;4.97;;;;;;;35.57;42.63;100999.11;1851605;77;21529;-60
2021/08/27 07:37:41;;;;;;;8.03;5.12;;;;;;;35.78;41.00;100998.49;1851677;77;21103;-60
2021/08/27 07:40:13;;;;;;;6.95;5.60;;;;;;;36.04;40.08;101002.43;1851685;77;21054;-60
2021/08/27 07:42:42;;;;;;;6.62;5.40;;;;;;;36.06;40.47;100993.95;1851774;77;21080;-60
2021/08/27 07:45:12;;;;;;;8.50;5.33;;;;;;;35.62;40.61;100995.20;1851575;77;21502;-60
2021/08/27 07:47:42;;;;;;;9.48;5.55;;;;;;;35.53;41.22;100981.45;1851593;77;21160;-60
2021/08/27 07:50:12;;;;;;;8.30;5.42;;;;;;;35.63;40.71;100996.86;1851550;77;21072;-61
2021/08/27 07:52:42;;;;;;;8.68;4.90;;;;;;;35.53;39.52;100986.93;1851560;77;21035;-60
2021/08/27 07:55:11;;;;;;;10.75;4.78;;;;;;;35.53;39.52;100986.93;1851560;77;21489;-60
2021/08/27 07:57:44;;;;;;;9.10;5.10;;;;;;;35.61;40.08;100996.78;1851576;77;21146;-60
2021/08/27 08:00:14;;;;;;;8.75;5.10;;;;;;;35.85;39.62;100997.92;1851569;77;21079;-60
2021/08/27 08:02:42;;;;;;;10.60;6.17;;;;;;;35.99;39.09;100998.14;1851610;77;21043;-61
2021/08/27 08:05:12;;;;;;;7.75;4.92;;;;;;;36.51;39.07;100991.91;1851594;77;21597;-60
2021/08/27 08:07:40;;;;;;;8.18;5.25;;;;;;;36.79;38.04;100996.08;1851585;77;21493;-60
2021/08/27 08:10:10;;;;;;;13.35;7.30;;;;;;;37.03;37.38;100987.47;1851598;77;21075;-60
2021/08/27 08:12:39;;;;;;;10.63;5.90;;;;;;;37.09;38.27;100982.96;1851684;77;21120;-60
2021/08/27 08:15:09;;;;;;;15.23;8.53;;;;;;;37.47;37.75;100977.75;1851613;77;21094;-60
2021/08/27 08:17:38;;;;;;;10.48;5.92;;;;;;;37.73;37.56;100983.96;1851574;77;21120;-60
2021/08/27 08:20:08;;;;;;;9.25;5.50;;;;;;;37.82;36.95;100979.26;1851531;77;21597;-60
2021/08/27 08:22:37;;;;;;;9.33;5.50;;;;;;;37.89;36.49;100977.80;1851690;77;21078;-60
2021/08/27 08:25:06;;;;;;;8.28;4.67;;;;;;;37.63;35.83;100979.05;1851672;77;21117;-60
2021/08/27 08:27:34;;;;;;;11.03;5.67;;;;;;;37.23;35.79;100977.64;1851599;77;21092;-60
2021/08/27 08:30:05;;;;;;;7.15;5.37;;;;;;;36.88;35.67;100976.88;1851499;77;21082;-60
2021/08/27 08:32:34;;;;;;;8.70;5.70;;;;;;;37.06;35.87;100972.47;1851689;77;21054;-60
2021/08/27 08:35:06;;;;;;;9.88;5.67;;;;;;;37.47;36.71;100972.26;1851610;77;21128;-60
2021/08/27 08:37:36;;;;;;;8.58;5.53;;;;;;;37.63;35.65;100966.14;1851681;77;21083;-60
2021/08/27 08:40:05;;;;;;;7.40;5.60;;;;;;;37.71;35.41;100968.25;1851545;77;21023;-60
2021/08/27 08:42:34;;;;;;;11.53;6.55;;;;;;;37.84;35.29;100965.29;1851488;77;21132;-60
2021/08/27 08:45:05;;;;;;;8.58;5.92;;;;;;;37.82;35.62;100969.64;1851555;77;21138;-60
2021/08/27 08:47:37;;;;;;;10.23;5.72;;;;;;;37.83;34.79;100974.59;1851525;77;21043;-60
2021/08/27 08:50:05;;;;;;;;;;;;;;;37.80;34.44;100964.92;1854353;77;21027;-60
2021/08/27 08:52:36;;;;;;;7.00;4.67;;;;;;;37.84;35.36;100959.80;1821181;79;20121;-60
2021/08/27 08:55:06;;;;;;;7.12;5.17;;;;;;;37.49;34.21;100967.37;1821054;78;21169;-60
2021/08/27 08:57:35;;;;;;;7.72;4.80;;;;;;;37.21;34.34;100955.63;1820709;79;21153;-60
2021/08/27 09:00:05;;;;;;;8.50;5.50;;;;;;;37.43;34.54;100958.70;1851561;77;21145;-60
2021/08/27 09:02:34;;;;;;;7.58;5.25;;;;;;;37.40;34.66;100955.03;1851662;77;21051;-60
2021/08/27 09:05:03;;;;;;;6.92;5.62;;;;;;;37.68;34.55;100959.09;1851677;77;21140;-60
2021/08/27 09:07:32;;;;;;;7.25;5.83;;;;;;;37.66;34.80;100945.59;1851478;77;21120;-60
2021/08/27 09:10:02;;;;;;;11.83;5.42;;;;;;;37.96;34.58;100948.30;1851674;77;21075;-60
2021/08/27 09:12:32;;;;;;;8.40;5.20;;;;;;;38.46;34.35;100942.03;1851660;77;21031;-60
2021/08/27 09:15:06;;;;;;;7.47;5.70;;;;;;;38.67;33.31;100946.95;1851535;77;21563;-60
2021/08/27 09:17:38;;;;;;;9.78;5.03;;;;;;;38.38;32.89;100948.23;1851582;77;21125;-60
2021/08/27 09:20:09;;;;;;;6.12;5.17;;;;;;;37.91;33.41;100941.84;1858913;77;21160;-60
2021/08/27 09:22:56;;;;;;;9.05;5.60;;;;;;;37.77;33.94;100940.66;1866369;77;21074;-60
2021/08/27 09:25:31;;;;;;;7.15;5.03;;;;;;;37.70;33.96;100933.59;1866259;77;21074;-60
2021/08/27 09:28:12;;;;;;;8.03;4.70;;;;;;;37.50;33.23;100939.36;1866355;77;21115;-60
2021/08/27 09:30:53;;;;;;;6.92;5.10;;;;;;;37.44;33.38;100935.64;1866182;77;21136;-60
2021/08/27 09:33:26;;;;;;;7.28;5.08;;;;;;;37.45;32.93;100926.34;1866289;77;21513;-60
2021/08/27 09:36:00;;;;;;;9.08;5.25;;;;;;;37.51;33.41;100928.14;1866363;77;21050;-60
2021/08/27 09:38:37;;;;;;;8.38;5.28;;;;;;;37.39;33.68;100935.53;1866244;77;21030;-60
2021/08/27 09:41:08;;;;;;;7.12;5.10;;;;;;;37.01;33.17;100934.72;1866205;77;21636;-61
2021/08/27 09:43:51;;;;;;;5.97;5.08;;;;;;;36.31;34.24;100931.78;1866237;77;21108;-60
2021/08/27 09:46:38;;;;;;;7.55;5.62;;;;;;;36.14;34.50;100932.86;1866228;77;21054;-60
2021/08/27 09:49:26;;;;;;;9.78;5.33;;;;;;;36.10;35.77;100922.05;1866124;77;21054;-61
2021/08/27 09:51:56;;;;;;;17.90;11.22;;;;;;;36.51;35.45;100921.98;1866181;77;21042;-60
2021/08/27 09:54:27;;;;;;;41.40;27.32;;;;;;;37.00;35.38;100923.45;1866304;77;21456;-60
2021/08/27 09:57:00;;;;;;;6.70;5.08;;;;;;;37.44;35.34;100920.53;1866352;77;21148;-60
2021/08/27 09:59:50;;;;;;;7.10;5.60;;;;;;;37.53;34.48;100923.25;1866216;77;21050;-60
2021/08/27 10:02:20;;;;;;;8.38;5.40;;;;;;;37.22;34.74;100915.59;1866257;77;21160;-60
2021/08/27 10:04:57;;;;;;;7.87;5.15;;;;;;;36.55;34.97;100910.56;1862693;77;21062;-60
2021/08/27 10:07:33;;;;;;;9.03;4.95;;;;;;;35.74;35.46;100912.64;1866164;77;21047;-60
2021/08/27 10:10:03;;;;;;;8.98;5.75;;;;;;;35.05;36.46;100906.62;1866030;77;21046;-60
2021/08/27 10:12:35;;;;;;;9.60;6.08;;;;;;;34.84;37.32;100915.42;1866295;77;21145;-60
2021/08/27 10:15:06;;;;;;;8.28;5.42;;;;;;;34.89;37.98;100915.61;1866466;77;21054;-60
2021/08/27 10:17:37;;;;;;;9.10;5.37;;;;;;;34.80;37.59;100917.77;1866166;77;21058;-60
2021/08/27 10:20:07;;;;;;;7.03;5.22;;;;;;;34.71;38.11;100928.64;1865833;77;21167;-60
2021/08/27 10:22:41;;;;;;;9.03;5.75;;;;;;;34.46;38.45;100917.52;1866061;77;21120;-60
2021/08/27 10:25:11;;;;;;;8.18;5.62;;;;;;;34.34;38.65;100924.14;1864355;77;21038;-60
2021/08/27 10:27:42;;;;;;;10.35;7.03;;;;;;;34.20;39.33;100931.53;1866197;77;21042;-60
2021/08/27 10:30:11;;;;;;;12.93;8.70;;;;;;;34.00;40.30;100941.60;1865539;77;21513;-60
2021/08/27 10:32:43;;;;;;;15.10;10.93;;;;;;;33.78;40.47;100936.33;1866144;77;21050;-60
2021/08/27 10:35:26;;;;;;;8.63;5.90;;;;;;;33.71;40.88;100931.38;1866246;77;21046;-60
2021/08/27 10:37:55;;;;;;;10.78;6.90;;;;;;;33.65;40.83;100930.86;1861530;77;21086;-60
2021/08/27 10:40:27;;;;;;;10.85;6.58;;;;;;;33.97;41.69;100916.06;1866389;77;21022;-60
2021/08/27 10:43:02;;;;;;;8.75;6.53;;;;;;;33.97;41.69;100916.06;1866764;77;21145;-59
2021/08/27 10:45:42;;;;;;;8.25;6.28;;;;;;;34.11;41.70;100930.57;1868752;77;21074;-59
2021/08/27 10:48:20;;;;;;;9.68;6.03;;;;;;;33.93;41.54;100925.73;1868871;77;21054;-60
2021/08/27 10:50:51;;;;;;;10.08;6.83;;;;;;;33.75;41.69;100923.62;1868878;77;21018;-59
2021/08/27 10:53:37;;;;;;;9.95;7.45;;;;;;;33.43;42.32;100932.34;1901320;75;21050;-59
2021/08/27 10:56:16;;;;;;;11.90;7.17;;;;;;;33.32;43.67;100922.57;1867722;77;21081;-59
2021/08/27 10:58:49;;;;;;;14.43;7.60;;;;;;;33.16;44.25;100922.41;1818641;78;21160;-59
2021/08/27 11:01:29;;;;;;;11.68;7.17;;;;;;;32.99;44.27;100921.89;1868490;77;21313;-59
2021/08/27 11:04:23;;;;;;;14.18;6.85;;;;;;;32.74;44.09;100921.55;1821918;78;21108;-59
2021/08/27 11:06:54;;;;;;;12.88;7.58;;;;;;;32.83;44.31;100923.07;1868390;77;21082;-59
2021/08/27 11:09:33;;;;;;;15.98;6.87;;;;;;;33.18;44.54;100920.31;1868886;77;21513;-59
2021/08/27 11:12:14;;;;;;;8.78;5.80;;;;;;;33.46;44.37;100920.20;1868996;77;21054;-59
2021/08/27 11:14:48;;;;;;;13.48;7.20;;;;;;;33.58;44.19;100926.70;1868885;77;21078;-59
2021/08/27 11:17:17;;;;;;;13.30;6.45;;;;;;;33.61;44.46;100922.74;1901329;75;21156;-59
2021/08/27 11:19:51;;;;;;;11.65;6.33;;;;;;;33.74;44.16;100921.42;1868467;77;21038;-59
2021/08/27 11:22:26;;;;;;;10.18;5.60;;;;;;;33.62;44.34;100920.31;1868324;77;21090;-59
2021/08/27 11:25:16;;;;;;;13.55;6.65;;;;;;;33.61;44.44;100911.83;1835653;78;21066;-60
2021/08/27 11:27:48;;;;;;;9.63;5.92;;;;;;;33.64;44.81;100910.02;1836916;78;21066;-59
2021/08/27 11:30:34;;;;;;;19.92;6.47;;;;;;;33.64;45.15;100909.55;1849177;77;21062;-59
2021/08/27 11:33:04;;;;;;;8.08;5.47;;;;;;;33.59;45.09;100916.66;1835683;78;21050;-59
2021/08/27 11:35:34;;;;;;;15.08;6.30;;;;;;;33.62;44.65;100912.13;1868414;77;21023;-60
2021/08/27 11:38:08;;;;;;;8.03;5.50;;;;;;;33.60;44.72;100910.12;1867374;77;21046;-59